Haven, KS

7:55 AM CDT on April 19, 2015 (GMT -0500)
hamill shop | | Change Station
CLOSE
Current Station
Personal Weather Station
Location: Mount Hope, KS
Elevation: 1470 ft
Nearby Weather Stations

Elev 1470 ft 37.85 °N, 97.68 °W | Updated 42 seconds ago

Partly Cloudy
Partly Cloudy
50.0 °F
Feels Like 50.0 °F
N
3.0
Wind Variable Wind from West
Gusts 4.0 mph

Today
High -- | Low -- °F
--% Chance of Precip.
Yesterday
High -- | Low -- °F
Precip. -- in
6:50 AM 8:10 PM
New Moon, 1% visible
Pressure 29.74 in
Visibility 10.0 miles
Clouds Clear
Dew Point 49 °F
Humidity 97%
Rainfall 0.05 in
Snow Depth Not available.
UV 0 out of 12
Pollen 9.00 out of 12
Air Quality Not available.
Flu Activity Sporadic
METAR KHUT 191152Z 31003KT 10SM BCFG CLR 09/08 A2976 RMK AO2 SLP071 70038 T00940083 10133 20089 53005

More Conditions Fewer Conditions

Pressure 29.74 in
Visibility 10.0 miles
Clouds Clear
Dew Point 49 °F
Humidity 97%
Rainfall 0.05 in
Snow Depth Not available.
UV 0 out of 12
Pollen 9.00 out of 12
Air Quality Not available.
Flu Activity Sporadic
METAR KHUT 191152Z 31003KT 10SM BCFG CLR 09/08 A2976 RMK AO2 SLP071 70038 T00940083 10133 20089 53005

More Conditions Fewer Conditions

10-Day Weather Forecast

Almanac

Astronomy

Apr. 19, 2015 Rise Set
Actual Time
Civil Twilight
Nautical Twilight
Astronomical Twilight
Moon
Length of Visible Light
Length of Day
Tomorrow will be .
, % of the Moon is Illuminated

Today's Extremes

State Highs State Lows

Community

WunderPhotos

Upload Photos

1,814,775 photos uploaded!

WunderBlogs® & News

Nearby

Air Quality

  Air Quality AQ Index Pollutant
Not available.

Snow Depth

Station Depth Elevation

Earthquake Activity

City Distance Mag. Time & Date
Minimum magnitude displayed is 2.5.

Coastal Water Temperatures

Place Temperature

Stations

Nearby Weather Stations

Station Location Temp. Windchill Dew Point Humidity Wind Precip. Elev Updated Type